Time;durP1;ratioP1;P1;durP2;ratioP2;P2;SDS_P1;SDS_P2;PMS_P1;PMS_P2;Temp;Humidity;BMP_temperature;BMP_pressure;BME280_temperature;BME280_humidity;BME280_pressure;Samples;Min_cycle;Max_cycle;Signal;HPM_P1;HPM_P2
2021/09/07 00:00:52;;;;;;;16.83;8.95;;;;;;;;;;4954930;29;20027;-48
2021/09/07 00:03:20;;;;;;;15.98;9.75;;;;;;;;;;4954890;29;20035;-48
2021/09/07 00:05:46;;;;;;;15.95;9.15;;;;;;;;;;4954854;29;20046;-46
2021/09/07 00:08:13;;;;;;;23.30;9.60;;;;;;;;;;4954493;29;20055;-48
2021/09/07 00:10:39;;;;;;;16.45;9.63;;;;;;;;;;4954724;29;20515;-47
2021/09/07 00:13:07;;;;;;;14.15;8.75;;;;;;;;;;4954704;29;20479;-47
2021/09/07 00:15:33;;;;;;;15.73;9.32;;;;;;;;;;4954697;29;20028;-48
2021/09/07 00:17:59;;;;;;;23.75;10.65;;;;;;;;;;4954515;29;20035;-48
2021/09/07 00:20:26;;;;;;;15.95;9.85;;;;;;;;;;4954715;28;20054;-47
2021/09/07 00:22:52;;;;;;;17.50;9.10;;;;;;;;;;4954699;29;20031;-48
2021/09/07 00:25:18;;;;;;;17.10;8.70;;;;;;;;;;4954715;29;20083;-48
2021/09/07 00:27:44;;;;;;;16.65;8.93;;;;;;;;;;4957510;28;20023;-48
2021/09/07 00:30:10;;;;;;;14.15;9.05;;;;;;;;;;4958295;29;20035;-48
2021/09/07 00:32:36;;;;;;;19.00;9.05;;;;;;;;;;4958209;29;20027;-46
2021/09/07 00:35:03;;;;;;;16.50;9.20;;;;;;;;;;4958187;29;20368;-49
2021/09/07 00:37:29;;;;;;;19.83;9.35;;;;;;;;;;4957980;29;20043;-49
2021/09/07 00:39:55;;;;;;;20.58;9.80;;;;;;;;;;4958056;29;20396;-49
2021/09/07 00:42:21;;;;;;;16.05;8.57;;;;;;;;;;4958379;29;20059;-48
2021/09/07 00:44:47;;;;;;;12.75;8.80;;;;;;;;;;4958127;29;20035;-48
2021/09/07 00:47:13;;;;;;;16.70;9.65;;;;;;;;;;4958224;29;20023;-47
2021/09/07 00:49:39;;;;;;;12.20;8.63;;;;;;;;;;4957898;29;20050;-48
2021/09/07 00:52:05;;;;;;;19.10;8.65;;;;;;;;;;4958057;29;20500;-48
2021/09/07 00:54:32;;;;;;;16.08;8.63;;;;;;;;;;4957904;29;20118;-46
2021/09/07 00:56:59;;;;;;;15.18;8.77;;;;;;;;;;4957719;29;20042;-48
2021/09/07 00:59:25;;;;;;;15.18;8.88;;;;;;;;;;4958083;29;20066;-48
2021/09/07 01:01:51;;;;;;;16.58;8.55;;;;;;;;;;4957944;29;20109;-47
2021/09/07 01:04:18;;;;;;;13.73;8.13;;;;;;;;;;4957684;29;20023;-48
2021/09/07 01:06:44;;;;;;;15.88;8.48;;;;;;;;;;4957622;29;20075;-47
2021/09/07 01:09:11;;;;;;;17.63;8.35;;;;;;;;;;4957644;29;20035;-46
2021/09/07 01:11:37;;;;;;;13.32;8.15;;;;;;;;;;4957676;29;20019;-47
2021/09/07 01:14:04;;;;;;;13.95;8.82;;;;;;;;;;4957872;29;20047;-46
2021/09/07 01:16:31;;;;;;;14.02;8.63;;;;;;;;;;4957587;29;20043;-48
2021/09/07 01:18:59;;;;;;;16.40;7.88;;;;;;;;;;4957432;29;20019;-48
2021/09/07 01:21:25;;;;;;;15.52;9.35;;;;;;;;;;4957537;29;20070;-47
2021/09/07 01:23:51;;;;;;;17.45;9.45;;;;;;;;;;4956056;29;20201;-48
2021/09/07 01:26:19;;;;;;;15.27;8.70;;;;;;;;;;4957221;29;20036;-47
2021/09/07 01:28:45;;;;;;;16.13;9.18;;;;;;;;;;4957582;29;20036;-47
2021/09/07 01:31:12;;;;;;;20.98;9.50;;;;;;;;;;4957438;29;20031;-47
2021/09/07 01:33:39;;;;;;;19.30;8.10;;;;;;;;;;4957205;29;20026;-47
2021/09/07 01:36:05;;;;;;;16.08;8.32;;;;;;;;;;4957004;29;20027;-48
2021/09/07 01:38:32;;;;;;;14.88;8.85;;;;;;;;;;4956086;28;20050;-47
2021/09/07 01:41:01;;;;;;;14.60;11.07;;;;;;;;;;4957191;29;20034;-46
2021/09/07 01:43:27;;;;;;;19.83;12.88;;;;;;;;;;4957307;28;20019;-48
2021/09/07 01:45:54;;;;;;;22.10;15.60;;;;;;;;;;4957224;28;20031;-47
2021/09/07 01:48:21;;;;;;;28.25;17.52;;;;;;;;;;4956826;28;20031;-47
2021/09/07 01:50:47;;;;;;;24.30;17.80;;;;;;;;;;4956973;28;20026;-47
2021/09/07 01:53:14;;;;;;;22.75;17.45;;;;;;;;;;4956898;28;20080;-47
2021/09/07 01:55:40;;;;;;;26.05;17.10;;;;;;;;;;4956907;28;20102;-47
2021/09/07 01:58:09;;;;;;;23.58;17.25;;;;;;;;;;4956665;28;20110;-47
2021/09/07 02:00:37;;;;;;;23.75;16.83;;;;;;;;;;4957182;28;20023;-48
2021/09/07 02:03:03;;;;;;;24.05;17.75;;;;;;;;;;4956707;28;20030;-48
2021/09/07 02:05:30;;;;;;;27.20;19.40;;;;;;;;;;4956735;28;20031;-48
2021/09/07 02:07:56;;;;;;;32.78;21.83;;;;;;;;;;4956315;28;20054;-47
2021/09/07 02:10:22;;;;;;;24.45;19.50;;;;;;;;;;4956625;28;20114;-48
2021/09/07 02:12:48;;;;;;;26.65;17.52;;;;;;;;;;4956509;28;20034;-47
2021/09/07 02:15:15;;;;;;;20.13;15.82;;;;;;;;;;4956597;28;20058;-47
2021/09/07 02:17:44;;;;;;;17.65;14.07;;;;;;;;;;4956576;28;20511;-47
2021/09/07 02:20:12;;;;;;;23.42;14.50;;;;;;;;;;4956250;28;20140;-47
2021/09/07 02:22:38;;;;;;;22.42;14.57;;;;;;;;;;4956496;28;20030;-48
2021/09/07 02:25:07;;;;;;;20.80;13.80;;;;;;;;;;4956866;28;20094;-48
2021/09/07 02:27:33;;;;;;;22.40;14.40;;;;;;;;;;4956743;28;20042;-48
2021/09/07 02:29:59;;;;;;;21.80;13.50;;;;;;;;;;4956227;28;20023;-48
2021/09/07 02:32:25;;;;;;;24.25;13.73;;;;;;;;;;4956189;28;20030;-48
2021/09/07 02:34:51;;;;;;;18.67;12.38;;;;;;;;;;4956080;28;20570;-48
2021/09/07 02:37:17;;;;;;;22.58;14.35;;;;;;;;;;4955849;28;20064;-48
2021/09/07 02:39:43;;;;;;;22.17;13.98;;;;;;;;;;4956074;28;20034;-47
2021/09/07 02:42:09;;;;;;;29.27;18.05;;;;;;;;;;4955926;28;20024;-48
2021/09/07 02:44:35;;;;;;;30.38;20.05;;;;;;;;;;4956123;28;20023;-47
2021/09/07 02:47:01;;;;;;;29.88;21.45;;;;;;;;;;4955906;28;20035;-48
2021/09/07 02:49:27;;;;;;;29.55;20.13;;;;;;;;;;4954114;28;20373;-48
2021/09/07 02:51:54;;;;;;;27.98;19.08;;;;;;;;;;4956111;28;20042;-49
2021/09/07 02:54:20;;;;;;;25.60;17.45;;;;;;;;;;4955864;28;20019;-48
2021/09/07 02:56:48;;;;;;;29.45;16.58;;;;;;;;;;4955542;28;20102;-49
2021/09/07 02:59:14;;;;;;;24.85;15.68;;;;;;;;;;4955886;28;20035;-47
2021/09/07 03:01:40;;;;;;;22.67;14.32;;;;;;;;;;4955646;28;20027;-49
2021/09/07 03:04:06;;;;;;;22.35;12.98;;;;;;;;;;4955804;28;20053;-48
2021/09/07 03:06:32;;;;;;;21.80;12.93;;;;;;;;;;4955476;28;20043;-49
2021/09/07 03:08:58;;;;;;;21.83;13.07;;;;;;;;;;4955572;28;20038;-49
2021/09/07 03:11:24;;;;;;;18.92;10.98;;;;;;;;;;4955455;28;20034;-49
2021/09/07 03:13:50;;;;;;;20.30;11.15;;;;;;;;;;4938264;29;20082;-48
2021/09/07 03:16:17;;;;;;;20.48;10.52;;;;;;;;;;4955442;28;20081;-48
2021/09/07 03:18:43;;;;;;;14.10;10.05;;;;;;;;;;4955251;28;20059;-48
2021/09/07 03:21:09;;;;;;;18.48;10.57;;;;;;;;;;4955461;28;20024;-48
2021/09/07 03:23:35;;;;;;;15.65;10.27;;;;;;;;;;4955313;28;20486;-48
2021/09/07 03:26:01;;;;;;;13.35;9.52;;;;;;;;;;4955396;28;20064;-48
2021/09/07 03:28:27;;;;;;;17.77;10.25;;;;;;;;;;4955223;29;20031;-47
2021/09/07 03:30:53;;;;;;;16.65;10.35;;;;;;;;;;4955465;28;20424;-49
2021/09/07 03:33:19;;;;;;;15.40;9.50;;;;;;;;;;4955411;28;20459;-48
2021/09/07 03:35:45;;;;;;;19.10;9.70;;;;;;;;;;4953923;29;20032;-48
2021/09/07 03:38:14;;;;;;;19.67;10.27;;;;;;;;;;4954895;29;20050;-44
2021/09/07 03:40:40;;;;;;;19.42;9.43;;;;;;;;;;4955120;28;20028;-45
2021/09/07 03:43:07;;;;;;;16.20;10.07;;;;;;;;;;4955045;29;20032;-45
2021/09/07 03:45:33;;;;;;;18.45;11.18;;;;;;;;;;4955236;28;20034;-47
2021/09/07 03:47:59;;;;;;;17.25;10.27;;;;;;;;;;4955222;28;20023;-47
2021/09/07 03:50:25;;;;;;;17.95;10.18;;;;;;;;;;4954946;28;20493;-47
2021/09/07 03:52:53;;;;;;;15.90;9.48;;;;;;;;;;4955032;28;20443;-48
2021/09/07 03:55:19;;;;;;;18.80;9.52;;;;;;;;;;4955059;29;20023;-47
2021/09/07 03:57:46;;;;;;;22.05;10.77;;;;;;;;;;4954858;29;20487;-47
2021/09/07 04:00:12;;;;;;;17.83;9.70;;;;;;;;;;4955210;28;20102;-45
2021/09/07 04:02:38;;;;;;;22.73;9.52;;;;;;;;;;4958049;29;20476;-46
2021/09/07 04:05:04;;;;;;;23.80;10.02;;;;;;;;;;4958706;29;20031;-47
2021/09/07 04:07:30;;;;;;;16.23;9.90;;;;;;;;;;4958563;28;20145;-47
2021/09/07 04:10:01;;;;;;;16.95;9.90;;;;;;;;;;4958837;29;20027;-46
2021/09/07 04:12:27;;;;;;;19.25;10.23;;;;;;;;;;4958693;29;20031;-46
2021/09/07 04:14:53;;;;;;;16.55;9.38;;;;;;;;;;4958712;28;20024;-46
2021/09/07 04:17:19;;;;;;;17.55;9.07;;;;;;;;;;4958623;29;20126;-46
2021/09/07 04:19:45;;;;;;;15.80;8.30;;;;;;;;;;4958577;29;20062;-46
2021/09/07 04:22:11;;;;;;;17.20;7.90;;;;;;;;;;4958514;29;20098;-47
2021/09/07 04:24:38;;;;;;;15.50;8.00;;;;;;;;;;4958573;29;20023;-47
2021/09/07 04:27:04;;;;;;;14.73;7.72;;;;;;;;;;4958243;29;20023;-47
2021/09/07 04:29:30;;;;;;;13.10;7.03;;;;;;;;;;4958415;29;20031;-49
2021/09/07 04:31:56;;;;;;;14.48;7.10;;;;;;;;;;4958347;29;20033;-48
2021/09/07 04:34:22;;;;;;;15.23;7.43;;;;;;;;;;4958324;29;20156;-48
2021/09/07 04:36:48;;;;;;;15.70;6.53;;;;;;;;;;4958167;29;20070;-48
2021/09/07 04:39:14;;;;;;;11.90;7.18;;;;;;;;;;4958194;29;20066;-47
2021/09/07 04:41:41;;;;;;;13.45;7.03;;;;;;;;;;4958220;29;20031;-45
2021/09/07 04:44:07;;;;;;;14.27;7.07;;;;;;;;;;4958468;29;20819;-47
2021/09/07 04:46:33;;;;;;;13.52;6.65;;;;;;;;;;4958302;29;20388;-48
2021/09/07 04:48:59;;;;;;;13.40;6.55;;;;;;;;;;4958069;29;20035;-48
2021/09/07 04:51:26;;;;;;;15.27;7.43;;;;;;;;;;4958001;29;20314;-46
2021/09/07 04:53:52;;;;;;;16.63;7.75;;;;;;;;;;4957916;29;20035;-46
2021/09/07 04:56:18;;;;;;;17.58;7.50;;;;;;;;;;4957891;29;20106;-47
2021/09/07 04:58:45;;;;;;;11.50;7.85;;;;;;;;;;4957773;29;20039;-48
2021/09/07 05:01:11;;;;;;;12.80;6.95;;;;;;;;;;4952260;29;20019;-48
2021/09/07 05:03:39;;;;;;;15.00;7.65;;;;;;;;;;4946688;29;20027;-46
2021/09/07 05:06:05;;;;;;;11.00;6.88;;;;;;;;;;4940843;29;20165;-48
2021/09/07 05:08:32;;;;;;;11.35;7.55;;;;;;;;;;4938313;29;20074;-47
2021/09/07 05:10:58;;;;;;;13.00;7.70;;;;;;;;;;4938403;29;20051;-49
2021/09/07 05:13:25;;;;;;;12.30;6.90;;;;;;;;;;4938423;29;20091;-49
2021/09/07 05:15:51;;;;;;;13.88;7.40;;;;;;;;;;4938637;29;20063;-47
2021/09/07 05:18:17;;;;;;;16.20;8.73;;;;;;;;;;4950203;29;20046;-48
2021/09/07 05:20:43;;;;;;;14.45;8.55;;;;;;;;;;4957118;29;20058;-47
2021/09/07 05:23:09;;;;;;;15.15;8.75;;;;;;;;;;4957369;29;20440;-47
2021/09/07 05:25:35;;;;;;;23.50;10.80;;;;;;;;;;4957317;29;20034;-49
2021/09/07 05:28:01;;;;;;;15.10;9.00;;;;;;;;;;4957244;29;20142;-48
2021/09/07 05:30:27;;;;;;;13.38;8.05;;;;;;;;;;4957443;29;20086;-45
2021/09/07 05:32:53;;;;;;;13.80;9.30;;;;;;;;;;4957255;29;20035;-44
2021/09/07 05:35:19;;;;;;;17.33;10.07;;;;;;;;;;4955680;29;20424;-45
2021/09/07 05:37:46;;;;;;;20.52;10.27;;;;;;;;;;4955600;29;20047;-45
2021/09/07 05:40:13;;;;;;;17.75;7.88;;;;;;;;;;4957284;29;20110;-44
2021/09/07 05:42:43;;;;;;;12.80;8.57;;;;;;;;;;4957230;29;20392;-45
2021/09/07 05:45:18;;;;;;;14.10;8.75;;;;;;;;;;4955838;29;20039;-45
2021/09/07 05:47:44;;;;;;;14.10;7.57;;;;;;;;;;4957301;29;20050;-46
2021/09/07 05:50:11;;;;;;;11.02;7.53;;;;;;;;;;4957091;29;20031;-46
2021/09/07 05:52:37;;;;;;;14.95;7.30;;;;;;;;;;4957051;29;20023;-46
2021/09/07 05:55:04;;;;;;;13.73;7.78;;;;;;;;;;4957105;29;20468;-46
2021/09/07 05:57:30;;;;;;;16.08;7.22;;;;;;;;;;4956755;29;20113;-46
2021/09/07 05:59:59;;;;;;;16.40;7.65;;;;;;;;;;4957010;29;20062;-45
2021/09/07 06:02:25;;;;;;;12.38;6.30;;;;;;;;;;4956951;29;20494;-46
2021/09/07 06:04:52;;;;;;;12.10;7.05;;;;;;;;;;4956772;29;20106;-45
2021/09/07 06:07:18;;;;;;;10.35;6.05;;;;;;;;;;4956670;29;20112;-45
2021/09/07 06:09:45;;;;;;;12.80;6.45;;;;;;;;;;4956743;29;20055;-45
2021/09/07 06:12:13;;;;;;;10.43;6.10;;;;;;;;;;4956659;29;20051;-49
2021/09/07 06:14:39;;;;;;;12.90;6.03;;;;;;;;;;4956747;29;20102;-47
2021/09/07 06:17:08;;;;;;;8.15;5.93;;;;;;;;;;4956471;29;20038;-45
2021/09/07 06:19:35;;;;;;;9.07;5.47;;;;;;;;;;4956492;29;20369;-46
2021/09/07 06:22:01;;;;;;;11.73;5.97;;;;;;;;;;4956577;29;20090;-46
2021/09/07 06:24:27;;;;;;;15.70;5.93;;;;;;;;;;4956032;28;20054;-47
2021/09/07 06:26:53;;;;;;;10.43;5.50;;;;;;;;;;4956380;29;20036;-46
2021/09/07 06:29:19;;;;;;;10.75;6.20;;;;;;;;;;4956384;29;20472;-46
2021/09/07 06:31:46;;;;;;;10.90;8.20;;;;;;;;;;4955479;29;20031;-46
2021/09/07 06:34:12;;;;;;;11.35;9.30;;;;;;;;;;4956486;29;20023;-48
2021/09/07 06:36:38;;;;;;;9.98;5.28;;;;;;;;;;4954890;29;20472;-47
2021/09/07 06:39:04;;;;;;;8.32;5.40;;;;;;;;;;4956301;29;20039;-48
2021/09/07 06:41:30;;;;;;;14.80;13.23;;;;;;;;;;4956189;29;20019;-48
2021/09/07 06:43:56;;;;;;;8.38;4.95;;;;;;;;;;4956173;29;20035;-48
2021/09/07 06:46:22;;;;;;;11.18;5.18;;;;;;;;;;4956086;29;20110;-46
2021/09/07 06:48:48;;;;;;;9.25;4.93;;;;;;;;;;4956247;29;20027;-47
2021/09/07 06:51:14;;;;;;;7.50;4.72;;;;;;;;;;4956073;29;20027;-45
2021/09/07 06:53:40;;;;;;;7.22;4.85;;;;;;;;;;4956009;29;20027;-46
2021/09/07 06:56:06;;;;;;;10.10;4.72;;;;;;;;;;4956205;29;20472;-48
2021/09/07 06:58:32;;;;;;;10.13;5.13;;;;;;;;;;4955855;29;20114;-47
2021/09/07 07:00:58;;;;;;;10.70;5.07;;;;;;;;;;4955928;29;20027;-49
2021/09/07 07:03:24;;;;;;;7.50;4.50;;;;;;;;;;4955923;29;20032;-46
2021/09/07 07:05:51;;;;;;;11.32;4.82;;;;;;;;;;4955755;29;20098;-45
2021/09/07 07:08:17;;;;;;;11.57;6.28;;;;;;;;;;4955663;29;20043;-47
2021/09/07 07:10:43;;;;;;;20.40;5.25;;;;;;;;;;4955801;29;20365;-48
2021/09/07 07:13:09;;;;;;;10.52;4.65;;;;;;;;;;4955674;29;20023;-48
2021/09/07 07:15:35;;;;;;;14.05;4.60;;;;;;;;;;4955589;29;20034;-46
2021/09/07 07:18:01;;;;;;;9.73;5.07;;;;;;;;;;4955666;29;20035;-49
2021/09/07 07:20:27;;;;;;;9.80;4.50;;;;;;;;;;4955524;29;20027;-45
2021/09/07 07:22:53;;;;;;;11.90;4.40;;;;;;;;;;4955637;29;20058;-46
2021/09/07 07:25:19;;;;;;;8.70;4.22;;;;;;;;;;4955448;29;20022;-46
2021/09/07 07:27:45;;;;;;;13.98;4.43;;;;;;;;;;4955389;29;20042;-46
2021/09/07 07:30:12;;;;;;;11.82;4.30;;;;;;;;;;4955620;29;20050;-47
2021/09/07 07:32:38;;;;;;;9.40;4.30;;;;;;;;;;4955327;29;20033;-45
2021/09/07 07:35:04;;;;;;;8.48;4.40;;;;;;;;;;4955227;28;20506;-44
2021/09/07 07:37:31;;;;;;;14.32;7.25;;;;;;;;;;4954065;29;20499;-45
2021/09/07 07:39:57;;;;;;;8.07;3.80;;;;;;;;;;4955325;29;20079;-45
2021/09/07 07:42:23;;;;;;;43.03;21.10;;;;;;;;;;4955441;29;20019;-45
2021/09/07 07:44:49;;;;;;;80.38;53.72;;;;;;;;;;4955559;29;20055;-47
2021/09/07 07:47:15;;;;;;;18.92;10.73;;;;;;;;;;4955408;29;20035;-44
2021/09/07 07:49:41;;;;;;;15.88;8.15;;;;;;;;;;4955115;29;20411;-46
2021/09/07 07:52:07;;;;;;;9.20;4.90;;;;;;;;;;4955197;29;20019;-50
2021/09/07 07:54:34;;;;;;;163.30;70.85;;;;;;;;;;4955110;29;20503;-47
2021/09/07 07:57:00;;;;;;;18.83;10.10;;;;;;;;;;4955143;29;20036;-48
2021/09/07 07:59:26;;;;;;;28.92;12.70;;;;;;;;;;4954973;29;20357;-47
2021/09/07 08:01:53;;;;;;;7.95;5.18;;;;;;;;;;4955131;29;20038;-49
2021/09/07 08:04:20;;;;;;;8.00;4.32;;;;;;;;;;4955089;29;20380;-47
2021/09/07 08:06:46;;;;;;;8.02;4.03;;;;;;;;;;4954838;29;20102;-48
2021/09/07 08:09:12;;;;;;;70.35;35.22;;;;;;;;;;4955087;29;20442;-48
2021/09/07 08:11:41;;;;;;;12.02;7.00;;;;;;;;;;4954913;29;20050;-45
2021/09/07 08:14:08;;;;;;;34.85;21.88;;;;;;;;;;4955337;29;20034;-47
2021/09/07 08:16:34;;;;;;;20.75;11.40;;;;;;;;;;4954881;29;20023;-44
2021/09/07 08:19:00;;;;;;;85.97;63.85;;;;;;;;;;4954950;29;20041;-44
2021/09/07 08:21:26;;;;;;;40.58;18.05;;;;;;;;;;4954596;29;20023;-45
2021/09/07 08:23:53;;;;;;;10.40;4.82;;;;;;;;;;4954973;29;20488;-45
2021/09/07 08:26:19;;;;;;;9.55;3.92;;;;;;;;;;4954984;29;20066;-45
2021/09/07 08:28:45;;;;;;;8.65;4.22;;;;;;;;;;4954844;29;20031;-45
2021/09/07 08:31:11;;;;;;;8.52;4.35;;;;;;;;;;4954798;29;20035;-44
2021/09/07 08:33:37;;;;;;;11.30;4.30;;;;;;;;;;4954804;29;20066;-45
2021/09/07 08:36:05;;;;;;;8.45;4.15;;;;;;;;;;4954675;29;20035;-44
2021/09/07 08:38:32;;;;;;;6.28;4.05;;;;;;;;;;4954705;29;20526;-43
2021/09/07 08:40:58;;;;;;;6.72;3.92;;;;;;;;;;4954819;29;20078;-45
2021/09/07 08:43:28;;;;;;;9.75;4.00;;;;;;;;;;4954673;29;20034;-46
2021/09/07 08:45:55;;;;;;;9.65;4.15;;;;;;;;;;4954861;29;20049;-45
2021/09/07 08:48:22;;;;;;;5.40;3.60;;;;;;;;;;4957138;28;20120;-47
2021/09/07 08:50:48;;;;;;;9.18;3.70;;;;;;;;;;4958178;29;20027;-45
2021/09/07 08:53:15;;;;;;;6.63;3.53;;;;;;;;;;4958303;29;20031;-45
2021/09/07 08:55:41;;;;;;;6.90;3.78;;;;;;;;;;4956966;29;20525;-45
2021/09/07 08:58:07;;;;;;;10.48;4.15;;;;;;;;;;4958087;29;20535;-45
2021/09/07 09:00:34;;;;;;;9.18;4.00;;;;;;;;;;4958111;29;20031;-44
2021/09/07 09:03:11;;;;;;;8.60;4.35;;;;;;;;;;4957958;29;20024;-45
2021/09/07 09:05:40;;;;;;;5.57;3.80;;;;;;;;;;4958090;29;20107;-45
2021/09/07 09:08:10;;;;;;;7.82;4.00;;;;;;;;;;4957794;29;20400;-45
2021/09/07 09:10:36;;;;;;;7.35;3.35;;;;;;;;;;4957989;29;20066;-45
2021/09/07 09:13:09;;;;;;;11.25;4.95;;;;;;;;;;4958030;29;20031;-45
2021/09/07 09:15:35;;;;;;;7.63;4.18;;;;;;;;;;4957789;29;20027;-45
2021/09/07 09:18:08;;;;;;;11.18;4.05;;;;;;;;;;4957777;29;20035;-46
2021/09/07 09:20:37;;;;;;;9.02;3.67;;;;;;;;;;4957608;29;20019;-45
2021/09/07 09:23:04;;;;;;;8.63;3.78;;;;;;;;;;4957808;29;20484;-45
2021/09/07 09:25:34;;;;;;;9.73;4.20;;;;;;;;;;4957791;29;20031;-45
2021/09/07 09:28:02;;;;;;;9.32;3.72;;;;;;;;;;4957466;29;20384;-46
2021/09/07 09:30:30;;;;;;;6.22;3.85;;;;;;;;;;4957406;29;20468;-45
2021/09/07 09:33:00;;;;;;;7.65;3.50;;;;;;;;;;4957469;29;20032;-45
2021/09/07 09:35:26;;;;;;;9.73;3.97;;;;;;;;;;4957241;29;20098;-45
2021/09/07 09:37:55;;;;;;;7.70;4.15;;;;;;;;;;4957110;29;20042;-46
2021/09/07 09:40:21;;;;;;;9.18;4.03;;;;;;;;;;4957338;29;20057;-45
2021/09/07 09:42:48;;;;;;;6.28;3.58;;;;;;;;;;4957301;29;20074;-45
2021/09/07 09:45:15;;;;;;;8.40;4.10;;;;;;;;;;4957143;29;20110;-45
2021/09/07 09:47:43;;;;;;;10.98;3.90;;;;;;;;;;4957436;29;20034;-45
2021/09/07 09:50:10;;;;;;;7.80;4.10;;;;;;;;;;4957006;29;20027;-45
2021/09/07 09:52:38;;;;;;;11.43;3.92;;;;;;;;;;4956997;29;20023;-47
2021/09/07 09:55:04;;;;;;;9.50;3.90;;;;;;;;;;4956907;29;20031;-46
2021/09/07 09:57:31;;;;;;;5.47;4.03;;;;;;;;;;4956759;29;20031;-45
2021/09/07 09:59:57;;;;;;;9.48;3.45;;;;;;;;;;4955989;28;20027;-46
2021/09/07 10:02:24;;;;;;;10.75;4.22;;;;;;;;;;4956937;29;20054;-47
2021/09/07 10:04:50;;;;;;;5.93;3.70;;;;;;;;;;4956804;29;20388;-46
2021/09/07 10:07:20;;;;;;;6.43;3.38;;;;;;;;;;4956589;29;20050;-48
2021/09/07 10:09:48;;;;;;;8.25;3.40;;;;;;;;;;4956794;29;20595;-45
2021/09/07 10:12:37;;;;;;;6.55;3.53;;;;;;;;;;4956749;29;20035;-45
2021/09/07 10:15:08;;;;;;;6.68;3.67;;;;;;;;;;4957033;28;20028;-45
2021/09/07 10:17:41;;;;;;;8.13;4.22;;;;;;;;;;4956500;29;20039;-45
2021/09/07 10:23:52;;;;;;;5.32;4.10;;;;;;;;;;4956463;29;20063;-44
2021/09/07 10:25:45;;;;;;;;;;;;;;;;;;4948133;29;20035;-43
2021/09/07 10:28:12;;;;;;;8.82;4.85;;;;;;;;;;4956250;29;19906;-46
2021/09/07 10:31:00;;;;;;;8.70;3.85;;;;;;;;;;4956348;29;20030;-45
2021/09/07 10:33:40;;;;;;;10.75;3.90;;;;;;;;;;4954858;29;20031;-45
2021/09/07 10:36:10;;;;;;;5.78;3.08;;;;;;;;;;4956130;29;20587;-46
2021/09/07 10:38:38;;;;;;;6.90;4.00;;;;;;;;;;4956014;29;20631;-46
2021/09/07 10:41:04;;;;;;;6.50;3.63;;;;;;;;;;4956144;29;20090;-46
2021/09/07 10:43:49;;;;;;;5.28;3.60;;;;;;;;;;4956169;29;20073;-46
2021/09/07 10:46:16;;;;;;;6.88;4.00;;;;;;;;;;4956284;29;20090;-45
2021/09/07 10:48:42;;;;;;;8.10;4.07;;;;;;;;;;4956248;29;20094;-45
2021/09/07 10:51:08;;;;;;;10.98;4.05;;;;;;;;;;4956504;29;20023;-45
2021/09/07 10:53:34;;;;;;;6.68;3.80;;;;;;;;;;4956043;29;20027;-46
2021/09/07 10:56:18;;;;;;;6.53;4.25;;;;;;;;;;4956128;29;20522;-45
2021/09/07 10:58:45;;;;;;;6.38;3.85;;;;;;;;;;4956067;29;20046;-45
2021/09/07 11:01:30;;;;;;;6.28;3.55;;;;;;;;;;4955967;29;20019;-46
2021/09/07 11:04:14;;;;;;;6.13;3.65;;;;;;;;;;4956408;29;20129;-45
2021/09/07 11:06:43;;;;;;;10.15;4.35;;;;;;;;;;4955894;29;20447;-45
2021/09/07 11:09:44;;;;;;;6.97;3.85;;;;;;;;;;4956006;29;20050;-45
2021/09/07 11:12:26;;;;;;;6.05;3.75;;;;;;;;;;4915745;29;20092;-45
2021/09/07 11:15:02;;;;;;;5.88;3.55;;;;;;;;;;4915558;29;20032;-45
2021/09/07 11:17:28;;;;;;;10.13;4.13;;;;;;;;;;4915761;29;20040;-45
2021/09/07 11:20:00;;;;;;;4.30;3.47;;;;;;;;;;4915609;29;20441;-46
2021/09/07 11:22:30;;;;;;;7.25;3.80;;;;;;;;;;4915394;29;20080;-45
2021/09/07 11:25:07;;;;;;;8.65;4.20;;;;;;;;;;4915460;29;20039;-45
2021/09/07 11:27:51;;;;;;;5.82;3.58;;;;;;;;;;4915587;29;20044;-45
2021/09/07 11:30:27;;;;;;;12.10;3.75;;;;;;;;;;4915279;29;20029;-44
2021/09/07 11:32:56;;;;;;;7.15;3.78;;;;;;;;;;4915464;29;20040;-45
2021/09/07 11:35:23;;;;;;;7.55;3.92;;;;;;;;;;4915365;29;20028;-45
2021/09/07 11:37:49;;;;;;;5.20;3.55;;;;;;;;;;4915037;29;20576;-46
2021/09/07 11:40:18;;;;;;;4.45;3.58;;;;;;;;;;4915589;29;20161;-45
2021/09/07 11:42:48;;;;;;;6.95;3.78;;;;;;;;;;4915235;29;20032;-46
2021/09/07 11:45:22;;;;;;;8.63;3.90;;;;;;;;;;4919910;29;20389;-48
2021/09/07 11:47:48;;;;;;;6.70;4.10;;;;;;;;;;4955421;29;20480;-48
2021/09/07 11:50:44;;;;;;;8.55;4.10;;;;;;;;;;4955177;29;20506;-48
2021/09/07 11:53:10;;;;;;;5.70;3.75;;;;;;;;;;4947090;29;20039;-47
2021/09/07 11:55:37;;;;;;;6.82;3.60;;;;;;;;;;4945311;29;20034;-46
2021/09/07 11:58:06;;;;;;;5.47;3.85;;;;;;;;;;4946013;29;20520;-45
2021/09/07 12:00:34;;;;;;;4.72;3.80;;;;;;;;;;4945840;29;20015;-45
2021/09/07 12:03:29;;;;;;;7.40;3.85;;;;;;;;;;4945341;29;20016;-46
2021/09/07 12:05:56;;;;;;;5.25;3.83;;;;;;;;;;4932247;29;20035;-45
2021/09/07 12:08:43;;;;;;;10.00;6.78;;;;;;;;;;4945871;29;20709;-45
2021/09/07 12:11:26;;;;;;;39.78;25.48;;;;;;;;;;4943956;29;20447;-48
2021/09/07 12:14:02;;;;;;;7.05;4.93;;;;;;;;;;4944542;29;20437;-50
2021/09/07 12:16:28;;;;;;;19.73;11.55;;;;;;;;;;4944008;29;20051;-50
2021/09/07 12:18:54;;;;;;;7.93;5.13;;;;;;;;;;4945145;29;20035;-50
2021/09/07 12:21:24;;;;;;;8.35;4.00;;;;;;;;;;4945377;28;20030;-50
2021/09/07 12:23:51;;;;;;;21.80;14.68;;;;;;;;;;4947460;29;20016;-49
2021/09/07 12:26:18;;;;;;;11.93;6.25;;;;;;;;;;4948171;29;20086;-49
2021/09/07 12:28:44;;;;;;;28.17;19.58;;;;;;;;;;4949793;29;20365;-49
2021/09/07 12:31:16;;;;;;;14.25;7.65;;;;;;;;;;4948140;29;20377;-50
2021/09/07 12:33:52;;;;;;;18.67;9.95;;;;;;;;;;4947747;29;20111;-50
2021/09/07 12:36:20;;;;;;;13.90;8.63;;;;;;;;;;4948673;29;20439;-50
2021/09/07 12:38:47;;;;;;;8.00;4.75;;;;;;;;;;4947140;29;20108;-48
2021/09/07 12:41:15;;;;;;;8.82;4.20;;;;;;;;;;4949026;29;20065;-49
2021/09/07 12:43:43;;;;;;;5.13;4.20;;;;;;;;;;4949062;29;20380;-48
2021/09/07 12:46:13;;;;;;;9.05;4.97;;;;;;;;;;4950124;29;20023;-51
2021/09/07 12:48:40;;;;;;;13.55;7.22;;;;;;;;;;4947929;29;20046;-49
2021/09/07 12:51:07;;;;;;;9.27;4.82;;;;;;;;;;4949098;29;20392;-49
2021/09/07 12:53:41;;;;;;;7.53;5.53;;;;;;;;;;4947817;29;20111;-50
2021/09/07 12:56:08;;;;;;;7.10;5.15;;;;;;;;;;4947017;29;20019;-50
2021/09/07 12:58:36;;;;;;;15.23;7.30;;;;;;;;;;4949699;29;20102;-50
2021/09/07 13:01:03;;;;;;;8.77;4.70;;;;;;;;;;4958004;29;20085;-51
2021/09/07 13:03:30;;;;;;;8.43;5.15;;;;;;;;;;4958035;29;20051;-50
2021/09/07 13:05:56;;;;;;;12.57;8.10;;;;;;;;;;4957541;29;20082;-48
2021/09/07 13:08:24;;;;;;;6.50;4.57;;;;;;;;;;4957816;29;20085;-50
2021/09/07 13:10:53;;;;;;;10.25;5.32;;;;;;;;;;4958126;29;20034;-50
2021/09/07 13:13:19;;;;;;;9.50;5.28;;;;;;;;;;4957970;29;20387;-48
2021/09/07 13:15:45;;;;;;;8.90;4.95;;;;;;;;;;4957894;29;20032;-50
2021/09/07 13:18:11;;;;;;;7.93;4.22;;;;;;;;;;4957618;29;20054;-48
2021/09/07 13:20:37;;;;;;;6.97;3.97;;;;;;;;;;4957486;29;20024;-48
2021/09/07 13:23:04;;;;;;;11.25;7.93;;;;;;;;;;4957765;29;20019;-47
2021/09/07 13:25:30;;;;;;;5.13;3.42;;;;;;;;;;4957734;29;20027;-47
2021/09/07 13:27:56;;;;;;;4.75;3.60;;;;;;;;;;4957807;29;20102;-48
2021/09/07 13:30:22;;;;;;;5.50;3.92;;;;;;;;;;4957622;29;20038;-48
2021/09/07 13:32:48;;;;;;;17.90;11.73;;;;;;;;;;4957562;28;20162;-50
2021/09/07 13:35:14;;;;;;;10.25;6.13;;;;;;;;;;4957726;29;20027;-49
2021/09/07 13:37:40;;;;;;;8.13;4.38;;;;;;;;;;4957089;29;20093;-49
2021/09/07 13:40:07;;;;;;;9.57;3.67;;;;;;;;;;4957553;29;20037;-46
2021/09/07 13:42:33;;;;;;;8.80;5.28;;;;;;;;;;4957213;29;20468;-47
2021/09/07 13:44:59;;;;;;;5.50;4.05;;;;;;;;;;4957249;29;20027;-45
2021/09/07 13:47:27;;;;;;;5.18;3.60;;;;;;;;;;4957354;29;20023;-44
2021/09/07 13:49:53;;;;;;;5.40;4.22;;;;;;;;;;4957266;29;20057;-46
2021/09/07 13:52:19;;;;;;;5.15;3.70;;;;;;;;;;4956868;29;20023;-47
2021/09/07 13:54:48;;;;;;;7.25;4.43;;;;;;;;;;4945303;29;20027;-47
2021/09/07 13:57:14;;;;;;;8.50;3.70;;;;;;;;;;4947937;29;20506;-46
2021/09/07 13:59:40;;;;;;;7.07;3.45;;;;;;;;;;4945529;29;20038;-47
2021/09/07 14:02:06;;;;;;;5.97;3.47;;;;;;;;;;4947764;29;20373;-47
2021/09/07 14:04:32;;;;;;;6.95;3.40;;;;;;;;;;4948447;29;20023;-45
2021/09/07 14:06:58;;;;;;;5.07;4.18;;;;;;;;;;4946554;29;20077;-46
2021/09/07 14:09:25;;;;;;;6.90;5.15;;;;;;;;;;4947569;29;20084;-48
2021/09/07 14:11:51;;;;;;;6.75;4.88;;;;;;;;;;4945916;29;20164;-48
2021/09/07 14:14:17;;;;;;;10.35;3.92;;;;;;;;;;4942046;29;20028;-48
2021/09/07 14:16:43;;;;;;;12.65;5.45;;;;;;;;;;4937473;29;20066;-49
2021/09/07 14:19:09;;;;;;;5.13;3.78;;;;;;;;;;4936075;29;20051;-47
2021/09/07 14:21:35;;;;;;;6.43;3.45;;;;;;;;;;4937327;29;20032;-44
2021/09/07 14:24:03;;;;;;;7.20;3.78;;;;;;;;;;4935939;29;20095;-45
2021/09/07 14:26:29;;;;;;;5.18;3.58;;;;;;;;;;4937292;29;20396;-52
2021/09/07 14:28:55;;;;;;;7.07;3.53;;;;;;;;;;4937393;29;20074;-48
2021/09/07 14:31:22;;;;;;;5.90;3.35;;;;;;;;;;4937396;29;20039;-47
2021/09/07 14:33:54;;;;;;;8.73;3.60;;;;;;;;;;4937321;29;20046;-47
2021/09/07 14:36:20;;;;;;;7.75;4.05;;;;;;;;;;4937003;29;20038;-46
2021/09/07 14:38:47;;;;;;;8.95;3.85;;;;;;;;;;4937121;29;20060;-49